createdAt,value
2022-12-31T00:04:55.789Z,4.96
2022-12-31T00:09:58.866Z,5.18
2022-12-31T00:15:02.103Z,5.06
2022-12-31T00:20:06.823Z,5.19
2022-12-31T00:25:10.436Z,5.21
2022-12-31T00:30:14.611Z,5.32
2022-12-31T00:35:17.628Z,5.37
2022-12-31T00:40:20.781Z,5.22
2022-12-31T00:45:23.804Z,5.48
2022-12-31T00:50:26.874Z,5.38
2022-12-31T00:55:31.019Z,5.30
2022-12-31T01:00:34.115Z,5.21
2022-12-31T01:05:37.473Z,5.33
2022-12-31T01:10:59.951Z,5.28
2022-12-31T01:16:11.144Z,5.21
2022-12-31T01:21:15.371Z,5.31
2022-12-31T01:26:19.724Z,5.35
2022-12-31T01:31:25.144Z,5.30
2022-12-31T01:36:30.702Z,5.27
2022-12-31T01:41:37.224Z,5.20
2022-12-31T01:46:45.850Z,5.25
2022-12-31T01:51:57.515Z,5.31
2022-12-31T01:57:01.688Z,5.22
2022-12-31T02:02:06.178Z,5.32
2022-12-31T02:07:10.463Z,5.32
2022-12-31T02:12:13.550Z,5.14
2022-12-31T02:17:55.211Z,5.28
2022-12-31T02:23:40.562Z,5.30
2022-12-31T02:28:49.498Z,5.32
2022-12-31T02:34:00.911Z,5.29
2022-12-31T02:39:07.021Z,5.24
2022-12-31T02:44:34.044Z,5.22
2022-12-31T02:50:01.805Z,5.30
2022-12-31T02:55:33.936Z,5.24
2022-12-31T03:01:04.318Z,5.13
2022-12-31T03:06:09.540Z,5.28
2022-12-31T03:11:32.498Z,5.16
2022-12-31T03:16:35.580Z,4.96
2022-12-31T03:21:59.028Z,4.94
2022-12-31T03:27:02.098Z,4.83
2022-12-31T03:32:05.396Z,4.85
2022-12-31T03:37:08.753Z,4.92
2022-12-31T03:42:11.841Z,4.97
2022-12-31T03:47:14.948Z,5.03
2022-12-31T03:52:18.046Z,4.96
2022-12-31T03:57:21.116Z,4.94
2022-12-31T04:02:28.593Z,4.95
2022-12-31T04:07:32.458Z,4.98
2022-12-31T04:12:35.885Z,5.13
2022-12-31T04:17:38.908Z,5.24
2022-12-31T04:22:43.054Z,5.29
2022-12-31T04:27:47.454Z,5.34
2022-12-31T04:32:50.548Z,5.30
2022-12-31T04:37:53.525Z,5.31
2022-12-31T04:42:56.644Z,5.32
2022-12-31T04:47:59.689Z,5.29
2022-12-31T04:53:02.748Z,5.29
2022-12-31T04:58:07.336Z,5.40
2022-12-31T05:03:19.500Z,5.52
2022-12-31T05:08:22.553Z,5.56
2022-12-31T05:13:32.763Z,5.71
2022-12-31T05:18:37.161Z,5.72
2022-12-31T05:23:40.236Z,5.70
2022-12-31T05:28:43.449Z,5.63
2022-12-31T05:33:46.555Z,5.77
2022-12-31T05:38:49.631Z,5.63
2022-12-31T05:43:52.705Z,5.68
2022-12-31T05:48:55.749Z,5.51
2022-12-31T05:53:58.849Z,5.52
2022-12-31T05:59:01.882Z,5.63
2022-12-31T06:04:05.152Z,5.84
2022-12-31T06:09:08.504Z,5.72
2022-12-31T06:14:11.997Z,5.74
2022-12-31T06:19:15.129Z,5.95
2022-12-31T06:24:18.537Z,5.84
2022-12-31T06:29:21.631Z,6.05
2022-12-31T06:39:44.308Z,6.07
2022-12-31T06:44:47.365Z,5.86
2022-12-31T06:49:50.531Z,5.92
2022-12-31T06:54:53.944Z,6.00
2022-12-31T06:59:57.496Z,5.94
2022-12-31T07:05:31.019Z,6.07
2022-12-31T07:16:13.920Z,6.24
2022-12-31T07:21:22.408Z,6.10
2022-12-31T07:26:40.940Z,6.40
2022-12-31T07:32:16.153Z,6.44
2022-12-31T07:38:00.208Z,6.53
2022-12-31T07:43:35.198Z,6.51
2022-12-31T07:53:59.994Z,6.60
2022-12-31T07:59:11.681Z,6.49
2022-12-31T08:04:28.441Z,6.39
2022-12-31T08:09:45.568Z,6.35
2022-12-31T08:14:49.173Z,6.29
2022-12-31T08:19:52.607Z,6.34
2022-12-31T08:25:16.907Z,6.40
2022-12-31T08:30:21.996Z,6.20
2022-12-31T08:35:58.023Z,6.19
2022-12-31T08:41:23.110Z,6.04
2022-12-31T08:46:37.257Z,6.14
2022-12-31T08:51:41.141Z,5.82
2022-12-31T08:56:52.336Z,5.70
2022-12-31T09:02:34.287Z,5.63
2022-12-31T09:07:49.321Z,5.55
2022-12-31T09:13:17.428Z,5.65
2022-12-31T09:18:20.759Z,5.59
2022-12-31T09:23:24.076Z,5.52
2022-12-31T09:28:40.171Z,5.45
2022-12-31T09:33:48.952Z,5.43
2022-12-31T09:39:03.682Z,5.42
2022-12-31T09:50:21.836Z,5.81
2022-12-31T09:55:30.625Z,5.87
2022-12-31T10:00:45.431Z,5.78
2022-12-31T10:06:02.167Z,5.79
2022-12-31T10:11:22.557Z,5.78
2022-12-31T10:16:51.820Z,5.81
2022-12-31T10:27:44.570Z,5.73
2022-12-31T10:33:09.215Z,5.73
2022-12-31T10:38:28.303Z,5.77
2022-12-31T10:43:37.120Z,5.70
2022-12-31T10:48:45.730Z,5.77
2022-12-31T10:54:03.563Z,5.79
2022-12-31T10:59:24.383Z,5.76
2022-12-31T11:04:30.503Z,5.90
2022-12-31T11:10:07.056Z,6.00
2022-12-31T11:15:39.035Z,5.98
2022-12-31T11:21:28.047Z,6.12
2022-12-31T11:26:40.046Z,6.24
2022-12-31T11:31:45.791Z,6.32
2022-12-31T11:37:06.893Z,6.15
2022-12-31T11:42:37.639Z,6.16
2022-12-31T11:48:29.203Z,6.08
2022-12-31T11:53:38.479Z,6.14
2022-12-31T11:58:47.987Z,6.04
2022-12-31T12:03:51.054Z,5.97
2022-12-31T12:08:59.633Z,5.89
2022-12-31T12:14:19.686Z,6.11
2022-12-31T12:19:26.733Z,6.16
2022-12-31T12:24:30.478Z,5.99
2022-12-31T12:29:35.281Z,5.92
2022-12-31T12:34:47.579Z,5.94
2022-12-31T12:40:02.145Z,5.89
2022-12-31T12:45:14.847Z,5.82
2022-12-31T12:50:24.951Z,5.68
2022-12-31T12:56:12.801Z,5.91
2022-12-31T13:01:35.320Z,5.64
2022-12-31T13:07:08.329Z,5.75
2022-12-31T13:13:22.063Z,5.76
2022-12-31T13:18:49.156Z,5.83
2022-12-31T13:23:58.211Z,5.98
2022-12-31T13:29:03.031Z,6.00
2022-12-31T13:34:16.547Z,6.19
2022-12-31T13:39:26.180Z,6.02
2022-12-31T13:44:55.353Z,6.10
2022-12-31T13:50:25.652Z,6.01
2022-12-31T13:55:40.673Z,5.93
2022-12-31T14:01:20.919Z,6.04
2022-12-31T14:06:27.730Z,6.00
2022-12-31T14:11:45.632Z,6.05
2022-12-31T14:17:11.809Z,6.00
2022-12-31T14:22:20.405Z,6.06
2022-12-31T14:27:30.117Z,5.88
2022-12-31T14:33:02.767Z,5.92
2022-12-31T14:38:21.223Z,5.96
2022-12-31T14:43:45.597Z,5.95
2022-12-31T14:49:02.974Z,5.85
2022-12-31T14:54:06.077Z,5.98
2022-12-31T14:59:35.676Z,5.97
2022-12-31T15:04:46.291Z,5.96
2022-12-31T15:16:02.583Z,6.08
2022-12-31T15:22:02.173Z,6.07
2022-12-31T15:27:07.155Z,6.07
2022-12-31T15:32:28.617Z,5.97
2022-12-31T15:37:35.241Z,6.06
2022-12-31T15:42:49.777Z,6.02
2022-12-31T15:48:00.680Z,5.97
2022-12-31T15:53:06.399Z,5.81
2022-12-31T15:58:17.729Z,5.80
2022-12-31T16:03:24.475Z,5.58
2022-12-31T16:08:29.829Z,5.76
2022-12-31T16:13:35.302Z,5.80
2022-12-31T16:18:43.904Z,5.67
2022-12-31T16:23:51.448Z,5.71
2022-12-31T16:29:00.283Z,5.79
2022-12-31T16:34:12.360Z,5.65
2022-12-31T16:39:34.024Z,5.70
2022-12-31T16:44:37.215Z,5.63
2022-12-31T16:54:58.083Z,5.54
2022-12-31T17:00:05.038Z,5.45
2022-12-31T17:05:22.824Z,5.48
2022-12-31T17:10:44.851Z,5.38
2022-12-31T17:15:48.300Z,5.40
2022-12-31T17:20:54.098Z,5.40
2022-12-31T17:26:08.645Z,5.25
2022-12-31T17:31:36.250Z,5.34
2022-12-31T17:36:41.282Z,5.09
2022-12-31T17:41:50.357Z,5.05
2022-12-31T17:46:54.124Z,4.99
2022-12-31T17:51:57.227Z,4.96
2022-12-31T17:57:00.455Z,5.00
2022-12-31T18:02:05.589Z,4.78
2022-12-31T18:07:08.755Z,4.83
2022-12-31T18:12:14.646Z,4.64
2022-12-31T18:17:17.759Z,4.68
2022-12-31T18:22:21.264Z,4.47
2022-12-31T18:27:24.414Z,4.50
2022-12-31T18:32:30.737Z,4.56
2022-12-31T18:37:35.288Z,4.49
2022-12-31T18:42:38.603Z,4.56
2022-12-31T18:47:41.648Z,4.55
2022-12-31T18:52:44.803Z,4.44
2022-12-31T18:57:47.918Z,4.48
2022-12-31T19:02:50.998Z,4.26
2022-12-31T19:07:55.123Z,4.36
2022-12-31T19:12:58.147Z,4.37
2022-12-31T19:18:02.844Z,4.39
2022-12-31T19:23:06.327Z,4.38
2022-12-31T19:28:16.779Z,4.37
2022-12-31T19:33:20.394Z,4.30
2022-12-31T19:38:26.107Z,4.37
2022-12-31T19:43:29.584Z,4.30
2022-12-31T19:48:33.170Z,4.31
2022-12-31T19:53:36.440Z,4.15
2022-12-31T19:58:39.482Z,4.19
2022-12-31T20:03:42.593Z,4.10
2022-12-31T20:08:46.799Z,4.20
2022-12-31T20:13:52.687Z,4.19
2022-12-31T20:18:55.900Z,4.07
2022-12-31T20:23:58.980Z,4.00
2022-12-31T20:29:08.072Z,4.04
2022-12-31T20:34:11.531Z,3.99
2022-12-31T20:39:14.572Z,4.18
2022-12-31T20:44:17.611Z,4.15
2022-12-31T20:49:37.111Z,4.00
2022-12-31T20:54:43.656Z,4.00
2022-12-31T20:59:46.704Z,3.95
2022-12-31T21:04:49.833Z,3.83
2022-12-31T21:09:53.637Z,3.75
2022-12-31T21:14:56.776Z,3.80
2022-12-31T21:19:59.862Z,3.87
2022-12-31T21:25:03.514Z,3.85
2022-12-31T21:30:22.356Z,3.82
2022-12-31T21:35:45.847Z,3.55
2022-12-31T21:40:49.339Z,3.57
2022-12-31T21:46:01.312Z,3.55
2022-12-31T21:51:15.192Z,3.46
2022-12-31T21:56:21.419Z,3.44
2022-12-31T22:01:42.957Z,3.40
2022-12-31T22:06:46.223Z,3.53
2022-12-31T22:11:49.292Z,3.39
2022-12-31T22:16:52.316Z,3.66
2022-12-31T22:27:28.114Z,3.76
2022-12-31T22:32:32.846Z,3.84
2022-12-31T22:37:56.260Z,3.73
2022-12-31T22:43:00.218Z,3.71
2022-12-31T22:48:03.258Z,3.91
2022-12-31T22:53:06.274Z,3.92
2022-12-31T23:03:26.265Z,3.98
2022-12-31T23:08:29.462Z,4.07
2022-12-31T23:13:58.897Z,3.96
2022-12-31T23:19:20.403Z,4.02
2022-12-31T23:24:26.698Z,4.11
2022-12-31T23:29:29.927Z,3.98
2022-12-31T23:39:53.793Z,4.01
2022-12-31T23:44:56.804Z,3.98
2022-12-31T23:49:59.795Z,4.12
2022-12-31T23:55:03.978Z,4.17
